createdAt,value
2017-04-10T00:00:07.816Z,9.96
2017-04-10T00:01:29.650Z,9.99
2017-04-10T00:02:51.908Z,9.96
2017-04-10T00:04:14.752Z,10.02
2017-04-10T00:05:36.578Z,9.86
2017-04-10T00:06:58.418Z,9.9
2017-04-10T00:08:20.276Z,9.86
2017-04-10T00:09:42.358Z,9.87
2017-04-10T00:11:04.189Z,9.84
2017-04-10T00:12:26.400Z,9.9
2017-04-10T00:13:47.990Z,9.91
2017-04-10T00:15:10.123Z,9.93
2017-04-10T00:16:32.275Z,10.02
2017-04-10T00:17:54.401Z,9.97
2017-04-10T00:19:16.711Z,9.96
2017-04-10T00:20:38.797Z,10.02
2017-04-10T00:22:01.033Z,9.97
2017-04-10T00:23:22.848Z,10.02
2017-04-10T00:24:45.077Z,9.96
2017-04-10T00:26:07.478Z,9.87
2017-04-10T00:27:29.309Z,9.93
2017-04-10T00:28:51.130Z,9.86
2017-04-10T00:30:13.606Z,9.89
2017-04-10T00:31:35.708Z,9.87
2017-04-10T00:32:58.216Z,9.84
2017-04-10T00:34:20.487Z,9.84
2017-04-10T00:35:42.409Z,9.86
2017-04-10T00:37:04.877Z,9.94
2017-04-10T00:38:27.036Z,9.96
2017-04-10T00:39:49.521Z,9.94
2017-04-10T00:41:11.982Z,9.87
2017-04-10T00:42:34.107Z,9.96
2017-04-10T00:43:55.690Z,9.9
2017-04-10T00:45:18.148Z,9.94
2017-04-10T00:46:40.675Z,9.89
2017-04-10T00:48:03.076Z,9.89
2017-04-10T00:49:25.230Z,9.81
2017-04-10T00:50:47.049Z,9.76
2017-04-10T00:52:09.179Z,9.75
2017-04-10T00:53:31.021Z,9.76
2017-04-10T00:54:53.171Z,9.69
2017-04-10T00:56:15.131Z,9.66
2017-04-10T00:57:36.655Z,9.66
2017-04-10T00:58:58.758Z,9.68
2017-04-10T01:00:20.950Z,9.74
2017-04-10T01:01:42.863Z,9.68
2017-04-10T01:03:05.027Z,9.66
2017-04-10T01:04:27.224Z,9.68
2017-04-10T01:05:49.079Z,9.54
2017-04-10T01:07:11.230Z,9.57
2017-04-10T01:08:33.356Z,9.58
2017-04-10T01:09:55.743Z,9.65
2017-04-10T01:11:17.597Z,9.56
2017-04-10T01:12:39.432Z,9.65
2017-04-10T01:14:01.577Z,9.64
2017-04-10T01:15:23.668Z,9.64
2017-04-10T01:16:45.942Z,9.66
2017-04-10T01:18:07.866Z,9.6
2017-04-10T01:19:30.009Z,9.58
2017-04-10T01:20:52.470Z,9.58
2017-04-10T01:22:14.330Z,9.57
2017-04-10T01:23:36.545Z,9.58
2017-04-10T01:24:58.065Z,9.6
2017-04-10T01:26:20.189Z,9.58
2017-04-10T01:27:41.715Z,9.58
2017-04-10T01:29:03.877Z,9.61
2017-04-10T01:30:26.159Z,9.58
2017-04-10T01:31:48.563Z,9.58
2017-04-10T01:33:10.389Z,9.58
2017-04-10T01:34:31.893Z,9.61
2017-04-10T01:35:54.039Z,9.58
2017-04-10T01:37:15.490Z,9.64
2017-04-10T01:38:37.425Z,9.58
2017-04-10T01:39:59.967Z,9.58
2017-04-10T01:41:21.155Z,9.57
2017-04-10T01:42:43.549Z,9.65
2017-04-10T01:44:05.361Z,9.68
2017-04-10T01:45:26.892Z,9.72
2017-04-10T01:46:49.009Z,9.65
2017-04-10T01:48:11.458Z,9.66
2017-04-10T01:49:33.607Z,9.69
2017-04-10T01:50:55.878Z,9.71
2017-04-10T01:52:18.333Z,9.69
2017-04-10T01:53:41.042Z,9.66
2017-04-10T01:55:03.234Z,9.68
2017-04-10T01:56:25.674Z,9.76
2017-04-10T01:57:46.855Z,9.72
2017-04-10T01:59:08.615Z,9.76
2017-04-10T02:00:30.851Z,9.76
2017-04-10T02:01:53.059Z,9.68
2017-04-10T02:03:15.229Z,9.66
2017-04-10T02:04:37.827Z,9.69
2017-04-10T02:05:59.669Z,9.66
2017-04-10T02:07:21.869Z,9.65
2017-04-10T02:08:43.694Z,9.69
2017-04-10T02:10:05.460Z,9.68
2017-04-10T02:11:27.900Z,9.66
2017-04-10T02:12:50.401Z,9.69
2017-04-10T02:14:12.229Z,9.68
2017-04-10T02:15:33.687Z,9.74
2017-04-10T02:16:55.819Z,9.74
2017-04-10T02:18:18.053Z,9.76
2017-04-10T02:19:40.221Z,9.78
2017-04-10T02:21:02.618Z,9.81
2017-04-10T02:22:24.468Z,9.83
2017-04-10T02:23:46.023Z,9.89
2017-04-10T02:25:07.855Z,9.89
2017-04-10T02:26:29.630Z,9.87
2017-04-10T02:27:50.899Z,9.87
2017-04-10T02:29:12.743Z,9.87
2017-04-10T02:30:34.269Z,9.81
2017-04-10T02:31:56.110Z,9.91
2017-04-10T02:33:17.617Z,9.93
2017-04-10T02:34:40.078Z,9.97
2017-04-10T02:36:01.569Z,9.94
2017-04-10T02:37:24.290Z,10.01
2017-04-10T02:38:46.450Z,10.07
2017-04-10T02:40:08.949Z,10.02
2017-04-10T02:41:30.759Z,10.14
2017-04-10T02:42:52.495Z,10.12
2017-04-10T02:44:14.686Z,10.17
2017-04-10T02:45:36.204Z,10.23
2017-04-10T02:46:58.366Z,10.38
2017-04-10T02:48:20.582Z,10.41
2017-04-10T02:49:42.751Z,10.47
2017-04-10T02:51:05.228Z,10.47
2017-04-10T02:52:26.731Z,10.52
2017-04-10T02:53:49.174Z,10.64
2017-04-10T02:55:11.301Z,10.6
2017-04-10T02:56:32.812Z,10.7
2017-04-10T02:57:54.878Z,10.68
2017-04-10T02:59:16.699Z,10.76
2017-04-10T03:00:38.939Z,10.68
2017-04-10T03:02:00.756Z,10.63
2017-04-10T03:03:23.327Z,10.59
2017-04-10T03:04:45.408Z,10.55
2017-04-10T03:06:06.942Z,10.56
2017-04-10T03:07:28.757Z,10.45
2017-04-10T03:08:49.955Z,10.52
2017-04-10T03:10:12.010Z,10.4
2017-04-10T03:11:34.207Z,10.42
2017-04-10T03:12:55.818Z,10.44
2017-04-10T03:14:17.419Z,10.4
2017-04-10T03:15:39.535Z,10.41
2017-04-10T03:17:01.989Z,10.3
2017-04-10T03:18:24.341Z,10.4
2017-04-10T03:19:46.854Z,10.36
2017-04-10T03:21:09.007Z,10.36
2017-04-10T03:22:30.708Z,10.42
2017-04-10T03:23:52.869Z,10.44
2017-04-10T03:25:14.076Z,10.36
2017-04-10T03:26:36.509Z,10.32
2017-04-10T03:27:58.639Z,10.33
2017-04-10T03:29:20.473Z,10.22
2017-04-10T03:30:41.978Z,10.15
2017-04-10T03:32:04.360Z,10.14
2017-04-10T03:33:26.185Z,10.15
2017-04-10T03:34:48.048Z,10.26
2017-04-10T03:36:09.554Z,10.22
2017-04-10T03:37:31.985Z,10.26
2017-04-10T03:38:53.502Z,10.18
2017-04-10T03:40:15.325Z,10.22
2017-04-10T03:41:36.200Z,10.17
2017-04-10T03:42:58.909Z,10.14
2017-04-10T03:44:21.105Z,9.99
2017-04-10T03:45:42.641Z,9.96
2017-04-10T03:47:04.799Z,9.91
2017-04-10T03:48:27.175Z,9.84
2017-04-10T03:49:49.769Z,9.79
2017-04-10T03:51:12.529Z,9.71
2017-04-10T03:52:34.353Z,9.57
2017-04-10T03:53:57.157Z,9.56
2017-04-10T03:55:18.799Z,9.54
2017-04-10T03:56:40.637Z,9.58
2017-04-10T03:58:02.436Z,9.61
2017-04-10T03:59:24.947Z,9.6
2017-04-10T04:00:47.399Z,9.61
2017-04-10T04:02:09.277Z,9.56
2017-04-10T04:03:31.103Z,9.66
2017-04-10T04:04:52.919Z,9.74
2017-04-10T04:06:15.078Z,9.97
2017-04-10T04:07:37.520Z,10.12
2017-04-10T04:08:59.326Z,10.22
2017-04-10T04:10:21.136Z,10.34
2017-04-10T04:11:43.151Z,10.42
2017-04-10T04:13:04.708Z,10.59
2017-04-10T04:14:26.619Z,10.73
2017-04-10T04:15:48.054Z,10.86
2017-04-10T04:17:09.290Z,10.94
2017-04-10T04:18:31.141Z,10.96
2017-04-10T04:19:52.759Z,10.91
2017-04-10T04:21:14.865Z,10.86
2017-04-10T04:22:37.006Z,10.82
2017-04-10T04:23:58.493Z,10.78
2017-04-10T04:25:19.999Z,10.76
2017-04-10T04:26:42.409Z,10.84
2017-04-10T04:28:04.649Z,10.99
2017-04-10T04:29:26.874Z,11.02
2017-04-10T04:30:48.069Z,11.17
2017-04-10T04:32:09.555Z,11.27
2017-04-10T04:33:32.010Z,11.22
2017-04-10T04:34:54.138Z,11.33
2017-04-10T04:36:16.280Z,11.29
2017-04-10T04:37:39.145Z,11.28
2017-04-10T04:39:00.059Z,11.29
2017-04-10T04:40:22.230Z,11.27
2017-04-10T04:41:44.387Z,11.22
2017-04-10T04:43:06.833Z,11.21
2017-04-10T04:44:28.999Z,11.22
2017-04-10T04:45:50.529Z,11.33
2017-04-10T04:47:12.343Z,11.28
2017-04-10T04:48:34.410Z,11.4
2017-04-10T04:49:56.425Z,11.37
2017-04-10T04:51:18.027Z,11.39
2017-04-10T04:52:39.558Z,11.27
2017-04-10T04:54:01.051Z,11.33
2017-04-10T04:55:22.579Z,11.24
2017-04-10T04:56:44.727Z,11.32
2017-04-10T04:58:06.285Z,11.29
2017-04-10T04:59:27.414Z,11.29
2017-04-10T05:00:49.919Z,11.25
2017-04-10T05:02:12.058Z,11.29
2017-04-10T05:03:33.899Z,11.35
2017-04-10T05:04:55.697Z,11.33
2017-04-10T05:06:17.840Z,11.32
2017-04-10T05:07:39.999Z,11.32
2017-04-10T05:09:01.813Z,11.29
2017-04-10T05:10:23.577Z,11.32
2017-04-10T05:11:45.853Z,11.33
2017-04-10T05:13:07.339Z,11.24
2017-04-10T05:14:29.480Z,11.33
2017-04-10T05:15:51.870Z,11.28
2017-04-10T05:17:13.719Z,11.33
2017-04-10T05:18:35.851Z,11.19
2017-04-10T05:19:57.986Z,11.21
2017-04-10T05:21:20.780Z,11.17
2017-04-10T05:22:42.408Z,11.21
2017-04-10T05:24:04.938Z,11.18
2017-04-10T05:25:26.481Z,11.18
2017-04-10T05:26:48.880Z,11.32
2017-04-10T05:28:10.999Z,11.25
2017-04-10T05:29:32.827Z,11.24
2017-04-10T05:30:54.656Z,11.25
2017-04-10T05:32:17.057Z,11.32
2017-04-10T05:33:39.205Z,11.36
2017-04-10T05:35:00.721Z,11.32
2017-04-10T05:36:22.861Z,11.37
2017-04-10T05:37:45.740Z,11.39
2017-04-10T05:39:07.907Z,11.37
2017-04-10T05:40:30.174Z,11.4
2017-04-10T05:41:52.010Z,11.33
2017-04-10T05:43:14.093Z,11.36
2017-04-10T05:44:36.228Z,11.47
2017-04-10T05:45:58.397Z,11.51
2017-04-10T05:47:20.559Z,11.64
2017-04-10T05:48:42.670Z,11.69
2017-04-10T05:50:04.218Z,11.62
2017-04-10T05:51:26.041Z,11.88
2017-04-10T05:52:47.957Z,11.98
2017-04-10T05:54:10.669Z,12.07
2017-04-10T05:55:33.139Z,12.04
2017-04-10T05:56:55.276Z,12.01
2017-04-10T05:58:17.731Z,11.96
2017-04-10T05:59:40.459Z,11.96
2017-04-10T06:01:02.627Z,12.24
2017-04-10T06:02:24.578Z,12.41
2017-04-10T06:03:46.086Z,12.86
2017-04-10T06:05:08.576Z,13.3
2017-04-10T06:06:30.409Z,13.59
2017-04-10T06:07:52.228Z,13.59
2017-04-10T06:09:14.473Z,13.59
2017-04-10T06:10:36.852Z,13.85
2017-04-10T06:11:59.118Z,13.89
2017-04-10T06:13:20.731Z,14.04
2017-04-10T06:14:42.917Z,14.09
2017-04-10T06:16:05.313Z,13.97
2017-04-10T06:17:26.820Z,13.97
2017-04-10T06:18:48.360Z,13.99
2017-04-10T06:20:10.190Z,14.03
2017-04-10T06:21:32.650Z,14.52
2017-04-10T06:22:54.573Z,14.54
2017-04-10T06:24:17.061Z,14.96
2017-04-10T06:25:39.528Z,15.02
2017-04-10T06:27:01.610Z,15.06
2017-04-10T06:28:23.749Z,14.68
2017-04-10T06:29:45.572Z,14.15
2017-04-10T06:31:07.709Z,13.6
2017-04-10T06:32:30.430Z,13.36
2017-04-10T06:33:52.571Z,12.96
2017-04-10T06:35:15.032Z,12.72
2017-04-10T06:36:36.870Z,12.49
2017-04-10T06:37:59.581Z,12.59
2017-04-10T06:39:21.630Z,12.67
2017-04-10T06:41:15.872Z,13.07
2017-04-10T06:42:38.339Z,13.07
2017-04-10T06:44:00.529Z,13.14
2017-04-10T06:45:22.690Z,13.07
2017-04-10T06:46:44.818Z,12.77
2017-04-10T06:48:06.571Z,12.67
2017-04-10T06:49:29.037Z,12.67
2017-04-10T06:50:51.191Z,12.53
2017-04-10T06:52:13.710Z,12.47
2017-04-10T06:53:35.518Z,12.5
2017-04-10T06:54:57.141Z,12.52
2017-04-10T06:56:19.310Z,12.37
2017-04-10T06:57:40.814Z,12.37
2017-04-10T06:59:02.298Z,12.32
2017-04-10T07:00:24.830Z,12.35
2017-04-10T07:01:46.539Z,12.32
2017-04-10T07:03:09.010Z,12.28
2017-04-10T07:04:31.213Z,12.32
2017-04-10T07:05:53.369Z,12.32
2017-04-10T07:07:14.900Z,12.27
2017-04-10T07:08:37.129Z,12.17
2017-04-10T07:09:59.907Z,12.1
2017-04-10T07:11:21.828Z,12.24
2017-04-10T07:12:43.828Z,12.31
2017-04-10T07:14:06.103Z,12.41
2017-04-10T07:15:28.189Z,12.41
2017-04-10T07:16:49.729Z,12.24
2017-04-10T07:18:12.190Z,12.28
2017-04-10T07:19:34.331Z,12.39
2017-04-10T07:20:56.089Z,12.29
2017-04-10T07:22:18.027Z,12.32
2017-04-10T07:23:40.519Z,12.38
2017-04-10T07:25:02.063Z,12.68
2017-04-10T07:26:24.218Z,12.75
2017-04-10T07:27:45.413Z,12.77
2017-04-10T07:29:06.931Z,12.65
2017-04-10T07:30:28.146Z,12.72
2017-04-10T07:31:49.591Z,12.59
2017-04-10T07:33:11.462Z,12.56
2017-04-10T07:34:33.639Z,12.49
2017-04-10T07:35:56.108Z,12.54
2017-04-10T07:37:17.872Z,12.71
2017-04-10T07:38:40.454Z,12.72
2017-04-10T07:40:01.990Z,12.57
2017-04-10T07:41:23.856Z,12.41
2017-04-10T07:42:45.642Z,12.52
2017-04-10T07:44:07.170Z,12.71
2017-04-10T07:45:29.439Z,12.89
2017-04-10T07:46:51.619Z,12.67
2017-04-10T07:48:14.346Z,12.42
2017-04-10T07:49:36.533Z,12.28
2017-04-10T07:50:58.690Z,12.17
2017-04-10T07:52:21.258Z,11.72
2017-04-10T07:53:43.949Z,11.83
2017-04-10T07:55:05.769Z,11.8
2017-04-10T07:56:28.059Z,11.54
2017-04-10T07:57:50.197Z,11.39
2017-04-10T07:59:12.394Z,11.29
2017-04-10T08:00:34.833Z,11.22
2017-04-10T08:01:56.782Z,11.15
2017-04-10T08:03:18.941Z,11.09
2017-04-10T08:04:41.339Z,11.14
2017-04-10T08:06:03.803Z,11.17
2017-04-10T08:07:26.055Z,11.29
2017-04-10T08:08:48.196Z,11.35
2017-04-10T08:10:10.707Z,11.29
2017-04-10T08:11:32.541Z,11.21
2017-04-10T08:12:55.015Z,11.15
2017-04-10T08:14:17.587Z,11.14
2017-04-10T08:15:39.990Z,11.14
2017-04-10T08:17:01.929Z,11.15
2017-04-10T08:18:23.431Z,11.32
2017-04-10T08:19:45.282Z,11.25
2017-04-10T08:21:07.111Z,11.28
2017-04-10T08:22:29.608Z,11.35
2017-04-10T08:23:51.119Z,11.37
2017-04-10T08:25:13.333Z,11.33
2017-04-10T08:26:35.099Z,11.21
2017-04-10T08:27:57.548Z,11.15
2017-04-10T08:29:19.542Z,11.1
2017-04-10T08:30:42.881Z,11.1
2017-04-10T08:32:05.179Z,11.06
2017-04-10T08:33:28.019Z,10.96
2017-04-10T08:34:50.177Z,11.03
2017-04-10T08:36:11.992Z,11.06
2017-04-10T08:37:34.399Z,11.1
2017-04-10T08:38:56.877Z,11.03
2017-04-10T08:40:19.403Z,11.09
2017-04-10T08:41:41.569Z,11.22
2017-04-10T08:43:03.371Z,11.29
2017-04-10T08:44:25.208Z,11.33
2017-04-10T08:45:47.143Z,11.25
2017-04-10T08:47:09.660Z,11.27
2017-04-10T08:48:32.055Z,11.27
2017-04-10T08:49:54.512Z,11.24
2017-04-10T08:51:16.764Z,11.24
2017-04-10T08:52:38.638Z,11.27
2017-04-10T08:54:01.039Z,11.17
2017-04-10T08:55:22.547Z,11.22
2017-04-10T08:56:45.107Z,11.35
2017-04-10T08:58:06.912Z,11.29
2017-04-10T08:59:29.298Z,11.11
2017-04-10T09:00:51.803Z,11.17
2017-04-10T09:02:13.636Z,11.15
2017-04-10T09:03:35.449Z,10.94
2017-04-10T09:04:57.550Z,10.92
2017-04-10T09:06:20.077Z,10.84
2017-04-10T09:07:42.236Z,10.86
2017-04-10T09:09:04.417Z,10.86
2017-04-10T09:10:26.906Z,11.22
2017-04-10T09:11:49.175Z,11.35
2017-04-10T09:13:11.455Z,11.32
2017-04-10T09:14:33.629Z,11.29
2017-04-10T09:15:56.169Z,11.47
2017-04-10T09:17:18.344Z,11.58
2017-04-10T09:18:40.820Z,11.43
2017-04-10T09:20:02.969Z,11.44
2017-04-10T09:21:26.096Z,11.37
2017-04-10T09:22:48.069Z,11.27
2017-04-10T09:24:10.532Z,11.18
2017-04-10T09:25:33.306Z,11.14
2017-04-10T09:26:56.051Z,11.22
2017-04-10T09:28:18.231Z,11.14
2017-04-10T09:29:39.749Z,11.03
2017-04-10T09:31:02.051Z,10.85
2017-04-10T09:32:24.860Z,10.86
2017-04-10T09:33:46.808Z,10.96
2017-04-10T09:35:08.727Z,11.18
2017-04-10T09:36:30.999Z,11.21
2017-04-10T09:37:53.382Z,11.18
2017-04-10T09:39:15.554Z,11.19
2017-04-10T09:40:37.406Z,11.22
2017-04-10T09:41:59.557Z,11.24
2017-04-10T09:43:22.279Z,11.24
2017-04-10T09:44:44.269Z,11.35
2017-04-10T09:46:06.715Z,11.58
2017-04-10T09:47:28.583Z,11.79
2017-04-10T09:48:51.422Z,11.99
2017-04-10T09:50:13.397Z,12.23
2017-04-10T09:51:35.657Z,12.21
2017-04-10T09:52:57.838Z,11.82
2017-04-10T09:54:19.667Z,11.65
2017-04-10T09:55:41.548Z,11.73
2017-04-10T09:57:04.972Z,11.61
2017-04-10T09:58:27.117Z,11.28
2017-04-10T09:59:48.894Z,11.19
2017-04-10T10:01:11.207Z,11.1
2017-04-10T10:02:33.826Z,11.58
2017-04-10T10:03:55.909Z,11.57
2017-04-10T10:05:18.629Z,11.72
2017-04-10T10:06:40.517Z,12.14
2017-04-10T10:08:02.697Z,12.28
2017-04-10T10:09:24.844Z,12.41
2017-04-10T10:10:47.271Z,12.53
2017-04-10T10:12:09.106Z,12.52
2017-04-10T10:13:31.378Z,12.52
2017-04-10T10:14:53.667Z,12.57
2017-04-10T10:16:16.078Z,12.86
2017-04-10T10:17:38.571Z,12.75
2017-04-10T10:19:01.057Z,13.04
2017-04-10T10:20:23.297Z,13.23
2017-04-10T10:21:45.756Z,13.29
2017-04-10T10:23:07.587Z,13.38
2017-04-10T10:24:30.145Z,13.46
2017-04-10T10:25:52.640Z,13.48
2017-04-10T10:27:15.126Z,13.54
2017-04-10T10:28:37.606Z,13.63
2017-04-10T10:29:59.997Z,13.45
2017-04-10T10:31:21.613Z,13.25
2017-04-10T10:33:15.863Z,13.03
2017-04-10T10:34:38.348Z,13.2
2017-04-10T10:36:00.796Z,13.36
2017-04-10T10:37:22.969Z,13.05
2017-04-10T10:38:45.187Z,13.07
2017-04-10T10:40:07.284Z,12.93
2017-04-10T10:41:29.449Z,12.92
2017-04-10T10:42:51.618Z,12.62
2017-04-10T10:44:13.517Z,12.7
2017-04-10T10:45:35.954Z,12.7
2017-04-10T10:46:58.206Z,12.59
2017-04-10T10:48:20.489Z,12.39
2017-04-10T10:49:42.636Z,12.54
2017-04-10T10:51:05.446Z,12.53
2017-04-10T10:52:27.617Z,12.75
2017-04-10T10:53:50.226Z,12.82
2017-04-10T10:55:12.057Z,13.05
2017-04-10T10:56:34.145Z,13.3
2017-04-10T10:57:55.969Z,13.45
2017-04-10T10:59:17.851Z,13.6
2017-04-10T11:00:39.686Z,13.91
2017-04-10T11:02:02.263Z,14.17
2017-04-10T11:03:24.745Z,14.24
2017-04-10T11:04:46.287Z,14.27
2017-04-10T11:06:08.262Z,13.79
2017-04-10T11:07:30.990Z,13.48
2017-04-10T11:08:52.948Z,13.44
2017-04-10T11:10:15.111Z,13.11
2017-04-10T11:11:36.949Z,12.96
2017-04-10T11:12:59.697Z,12.59
2017-04-10T11:14:21.525Z,12.5
2017-04-10T11:15:43.684Z,11.98
2017-04-10T11:17:05.533Z,12.32
2017-04-10T11:18:28.286Z,12.29
2017-04-10T11:19:50.438Z,12.86
2017-04-10T11:21:12.580Z,13.32
2017-04-10T11:22:33.566Z,13.45
2017-04-10T11:23:56.269Z,13.79
2017-04-10T11:25:18.131Z,13.88
2017-04-10T11:26:39.765Z,13.95
2017-04-10T11:28:01.978Z,14.09
2017-04-10T11:29:24.387Z,14.09
2017-04-10T11:30:46.232Z,14.17
2017-04-10T11:32:08.454Z,14.09
2017-04-10T11:33:29.975Z,14.07
2017-04-10T11:34:52.235Z,14.24
2017-04-10T11:36:13.457Z,14.32
2017-04-10T11:37:36.215Z,14.46
2017-04-10T11:38:58.417Z,14.43
2017-04-10T11:40:21.186Z,14.28
2017-04-10T11:41:43.686Z,14.17
2017-04-10T11:43:05.622Z,14.14
2017-04-10T11:44:27.770Z,14.27
2017-04-10T11:45:50.238Z,14.18
2017-04-10T11:47:12.726Z,14.04
2017-04-10T11:48:34.386Z,13.91
2017-04-10T11:49:56.216Z,13.97
2017-04-10T11:51:19.036Z,13.87
2017-04-10T11:52:41.546Z,13.89
2017-04-10T11:54:04.032Z,13.87
2017-04-10T11:55:25.853Z,14.04
2017-04-10T11:56:48.257Z,13.87
2017-04-10T11:58:10.741Z,13.79
2017-04-10T11:59:33.301Z,13.63
2017-04-10T12:00:55.803Z,13.57
2017-04-10T12:02:17.923Z,13.57
2017-04-10T12:03:39.765Z,13.45
2017-04-10T12:05:01.937Z,13.25
2017-04-10T12:06:23.843Z,13.2
2017-04-10T12:07:46.259Z,13.36
2017-04-10T12:09:08.749Z,13.77
2017-04-10T12:10:30.880Z,13.95
2017-04-10T12:11:53.566Z,14.22
2017-04-10T12:13:16.049Z,14.33
2017-04-10T12:14:37.884Z,14.5
2017-04-10T12:16:00.422Z,14.46
2017-04-10T12:17:22.326Z,14.54
2017-04-10T12:18:44.307Z,14.83
2017-04-10T12:20:06.763Z,15.13
2017-04-10T12:21:28.678Z,15.01
2017-04-10T12:22:50.618Z,15.01
2017-04-10T12:24:13.125Z,14.83
2017-04-10T12:25:35.403Z,14.45
2017-04-10T12:26:57.606Z,14.37
2017-04-10T12:28:20.098Z,14.55
2017-04-10T12:29:42.186Z,14.65
2017-04-10T12:31:04.016Z,14.29
2017-04-10T12:32:26.161Z,13.77
2017-04-10T12:33:48.617Z,13.12
2017-04-10T12:35:11.378Z,13.52
2017-04-10T12:36:33.844Z,13.49
2017-04-10T12:37:55.399Z,13.52
2017-04-10T12:39:17.969Z,13.92
2017-04-10T12:40:40.355Z,13.75
2017-04-10T12:42:02.818Z,14.2
2017-04-10T12:43:24.649Z,14.22
2017-04-10T12:44:46.939Z,14.32
2017-04-10T12:46:08.847Z,13.96
2017-04-10T12:47:30.399Z,13.85
2017-04-10T12:48:51.927Z,13.46
2017-04-10T12:50:14.096Z,13.01
2017-04-10T12:51:35.961Z,12.9
2017-04-10T12:52:58.497Z,13.11
2017-04-10T12:54:20.363Z,13.45
2017-04-10T12:55:42.636Z,13.48
2017-04-10T12:57:05.019Z,13.46
2017-04-10T12:58:27.227Z,13.49
2017-04-10T12:59:49.389Z,13.52
2017-04-10T13:01:11.524Z,13.69
2017-04-10T13:02:33.390Z,13.95
2017-04-10T13:03:55.210Z,14.09
2017-04-10T13:05:17.480Z,14.22
2017-04-10T13:06:40.047Z,14.27
2017-04-10T13:08:02.126Z,14.06
2017-04-10T13:09:24.639Z,14.03
2017-04-10T13:10:46.850Z,13.91
2017-04-10T13:12:09.017Z,14
2017-04-10T13:13:31.113Z,14.18
2017-04-10T13:14:53.275Z,14.22
2017-04-10T13:16:14.589Z,14.1
2017-04-10T13:17:36.759Z,13.87
2017-04-10T13:18:59.269Z,13.88
2017-04-10T13:20:21.113Z,13.95
2017-04-10T13:21:43.248Z,13.99
2017-04-10T13:23:05.512Z,13.89
2017-04-10T13:24:27.977Z,14.04
2017-04-10T13:25:49.809Z,14.18
2017-04-10T13:27:11.435Z,14.15
2017-04-10T13:28:33.661Z,14.07
2017-04-10T13:29:56.081Z,14.04
2017-04-10T13:31:18.549Z,13.99
2017-04-10T13:32:41.154Z,13.79
2017-04-10T13:34:02.968Z,13.59
2017-04-10T13:35:25.427Z,13.52
2017-04-10T13:36:47.254Z,13.44
2017-04-10T13:38:09.884Z,13.2
2017-04-10T13:39:31.821Z,12.97
2017-04-10T13:40:53.609Z,12.74
2017-04-10T13:42:15.999Z,12.67
2017-04-10T13:43:38.549Z,12.71
2017-04-10T13:45:00.389Z,12.83
2017-04-10T13:46:22.799Z,12.79
2017-04-10T13:47:45.270Z,12.79
2017-04-10T13:49:07.604Z,12.95
2017-04-10T13:50:29.760Z,13.05
2017-04-10T13:51:52.168Z,13.07
2017-04-10T13:53:13.768Z,13.1
2017-04-10T13:54:35.599Z,13.1
2017-04-10T13:55:57.821Z,13.2
2017-04-10T13:57:20.309Z,13.22
2017-04-10T13:58:42.448Z,13.38
2017-04-10T14:00:04.278Z,13.39
2017-04-10T14:01:26.427Z,13.44
2017-04-10T14:02:49.190Z,13.42
2017-04-10T14:04:11.366Z,13.39
2017-04-10T14:05:33.010Z,13.2
2017-04-10T14:06:55.150Z,13.15
2017-04-10T14:08:17.369Z,13.03
2017-04-10T14:09:39.621Z,12.85
2017-04-10T14:11:01.810Z,12.79
2017-04-10T14:12:23.960Z,12.75
2017-04-10T14:13:46.136Z,12.59
2017-04-10T14:15:07.669Z,12.54
2017-04-10T14:16:29.507Z,12.53
2017-04-10T14:17:51.328Z,12.64
2017-04-10T14:19:14.183Z,12.83
2017-04-10T14:20:35.739Z,12.93
2017-04-10T14:21:58.217Z,13.07
2017-04-10T14:23:20.169Z,13.2
2017-04-10T14:24:42.619Z,13.23
2017-04-10T14:26:04.552Z,13.17
2017-04-10T14:27:26.464Z,13.17
2017-04-10T14:28:48.948Z,13.01
2017-04-10T14:30:11.829Z,12.97
2017-04-10T14:31:33.407Z,12.75
2017-04-10T14:32:55.626Z,12.54
2017-04-10T14:34:17.527Z,12.41
2017-04-10T14:35:39.769Z,12.45
2017-04-10T14:37:01.961Z,12.53
2017-04-10T14:38:23.599Z,12.59
2017-04-10T14:39:46.089Z,12.72
2017-04-10T14:41:08.230Z,12.86
2017-04-10T14:42:30.719Z,12.9
2017-04-10T14:43:53.092Z,13.03
2017-04-10T14:45:15.329Z,13.05
2017-04-10T14:46:37.488Z,12.93
2017-04-10T14:48:00.175Z,12.68
2017-04-10T14:49:22.710Z,12.52
2017-04-10T14:50:44.894Z,12.37
2017-04-10T14:52:07.332Z,12.31
2017-04-10T14:53:29.550Z,12.53
2017-04-10T14:54:51.409Z,12.68
2017-04-10T14:56:13.317Z,12.7
2017-04-10T14:57:35.913Z,12.77
2017-04-10T14:58:57.800Z,12.7
2017-04-10T15:00:20.352Z,12.71
2017-04-10T15:01:42.251Z,12.72
2017-04-10T15:03:04.378Z,12.87
2017-04-10T15:04:26.974Z,12.7
2017-04-10T15:05:49.160Z,12.39
2017-04-10T15:07:11.323Z,12.24
2017-04-10T15:08:34.339Z,12.47
2017-04-10T15:09:56.519Z,12.54
2017-04-10T15:11:18.838Z,12.72
2017-04-10T15:12:40.669Z,12.59
2017-04-10T15:14:03.083Z,12.62
2017-04-10T15:15:25.255Z,12.75
2017-04-10T15:16:47.399Z,12.72
2017-04-10T15:18:09.310Z,12.72
2017-04-10T15:19:32.042Z,12.64
2017-04-10T15:20:53.603Z,12.47
2017-04-10T15:22:16.090Z,12.31
2017-04-10T15:23:37.948Z,12.16
2017-04-10T15:25:00.603Z,12.21
2017-04-10T15:26:23.085Z,12.28
2017-04-10T15:27:44.616Z,12.34
2017-04-10T15:29:06.180Z,12.53
2017-04-10T15:30:29.047Z,12.56
2017-04-10T15:31:51.192Z,12.5
2017-04-10T15:33:13.367Z,12.54
2017-04-10T15:34:35.263Z,12.6
2017-04-10T15:35:57.373Z,12.53
2017-04-10T15:37:19.283Z,12.5
2017-04-10T15:38:41.454Z,12.42
2017-04-10T15:40:03.679Z,12.41
2017-04-10T15:41:26.301Z,12.34
2017-04-10T15:42:48.855Z,12.21
2017-04-10T15:44:11.047Z,12.14
2017-04-10T15:45:33.635Z,12.09
2017-04-10T15:46:56.415Z,12.07
2017-04-10T15:48:19.203Z,12.1
2017-04-10T15:49:41.960Z,12.09
2017-04-10T15:51:04.480Z,12.07
2017-04-10T15:52:27.643Z,12.07
2017-04-10T15:53:50.628Z,12.09
2017-04-10T15:55:13.806Z,12.1
2017-04-10T15:56:36.355Z,12.14
2017-04-10T15:57:58.462Z,11.99
2017-04-10T15:59:20.653Z,11.91
2017-04-10T16:00:42.861Z,11.88
2017-04-10T16:02:04.723Z,11.79
2017-04-10T16:03:27.141Z,11.75
2017-04-10T16:04:49.902Z,11.85
2017-04-10T16:06:11.766Z,11.98
2017-04-10T16:07:33.960Z,11.88
2017-04-10T16:08:56.885Z,11.86
2017-04-10T16:10:19.311Z,11.86
2017-04-10T16:11:42.785Z,12.01
2017-04-10T16:13:04.684Z,11.86
2017-04-10T16:14:27.136Z,11.72
2017-04-10T16:15:49.681Z,11.73
2017-04-10T16:17:12.183Z,11.85
2017-04-10T16:18:34.820Z,11.79
2017-04-10T16:19:56.760Z,11.65
2017-04-10T16:21:18.960Z,11.67
2017-04-10T16:22:41.461Z,11.57
2017-04-10T16:24:03.649Z,11.62
2017-04-10T16:25:26.372Z,11.6
2017-04-10T16:26:48.520Z,11.58
2017-04-10T16:28:10.359Z,11.62
2017-04-10T16:29:32.699Z,11.67
2017-04-10T16:30:55.212Z,11.61
2017-04-10T16:32:17.035Z,11.55
2017-04-10T16:33:39.579Z,11.4
2017-04-10T16:35:02.127Z,11.4
2017-04-10T16:36:24.974Z,11.35
2017-04-10T16:37:46.857Z,11.24
2017-04-10T16:39:08.697Z,11.29
2017-04-10T16:40:30.925Z,11.22
2017-04-10T16:41:53.349Z,11.19
2017-04-10T16:43:15.588Z,11.15
2017-04-10T16:44:37.967Z,11.19
2017-04-10T16:46:00.203Z,11.1
2017-04-10T16:47:22.926Z,11.18
2017-04-10T16:48:45.301Z,11.15
2017-04-10T16:50:07.169Z,11.06
2017-04-10T16:51:29.748Z,11.07
2017-04-10T16:52:52.072Z,11.07
2017-04-10T16:54:14.300Z,11
2017-04-10T16:55:36.615Z,11.03
2017-04-10T16:56:59.110Z,11.04
2017-04-10T16:58:21.961Z,11.02
2017-04-10T16:59:44.470Z,11
2017-04-10T17:01:06.630Z,11.02
2017-04-10T17:02:28.830Z,10.99
2017-04-10T17:03:50.929Z,10.88
2017-04-10T17:05:13.111Z,10.78
2017-04-10T17:06:35.600Z,10.86
2017-04-10T17:07:57.472Z,10.76
2017-04-10T17:09:20.014Z,10.74
2017-04-10T17:10:42.310Z,10.67
2017-04-10T17:12:04.470Z,10.59
2017-04-10T17:13:26.534Z,10.61
2017-04-10T17:14:49.076Z,10.66
2017-04-10T17:16:11.296Z,10.56
2017-04-10T17:17:33.160Z,10.55
2017-04-10T17:18:55.761Z,10.59
2017-04-10T17:20:18.008Z,10.55
2017-04-10T17:21:40.206Z,10.53
2017-04-10T17:23:02.706Z,10.42
2017-04-10T17:24:24.893Z,10.42
2017-04-10T17:25:47.501Z,10.41
2017-04-10T17:27:09.701Z,10.4
2017-04-10T17:28:31.879Z,10.34
2017-04-10T17:29:54.057Z,10.34
2017-04-10T17:31:16.519Z,10.34
2017-04-10T17:32:38.689Z,10.38
2017-04-10T17:34:00.548Z,10.36
2017-04-10T17:35:23.043Z,10.26
2017-04-10T17:36:45.858Z,10.3
2017-04-10T17:38:08.359Z,10.29
2017-04-10T17:39:30.928Z,10.3
2017-04-10T17:40:53.102Z,10.25
2017-04-10T17:42:15.810Z,10.22
2017-04-10T17:43:37.663Z,10.25
2017-04-10T17:45:00.281Z,10.17
2017-04-10T17:46:22.453Z,10.15